sensor_id;sensor_type;location;lat;lon;timestamp;P1;durP1;ratioP1;P2;durP2;ratioP2
27383;SDS011;14851;51.166;4.760;2023-05-06T00:00:03;14.55;;;10.90;;
27383;SDS011;14851;51.166;4.760;2023-05-06T00:02:36;11.02;;;9.98;;
27383;SDS011;14851;51.166;4.760;2023-05-06T00:05:03;11.82;;;9.80;;
27383;SDS011;14851;51.166;4.760;2023-05-06T00:07:29;13.48;;;9.48;;
27383;SDS011;14851;51.166;4.760;2023-05-06T00:09:54;11.00;;;9.68;;
27383;SDS011;14851;51.166;4.760;2023-05-06T00:12:20;14.50;;;9.98;;
27383;SDS011;14851;51.166;4.760;2023-05-06T00:14:46;9.68;;;8.77;;
27383;SDS011;14851;51.166;4.760;2023-05-06T00:17:12;9.10;;;8.20;;
27383;SDS011;14851;51.166;4.760;2023-05-06T00:19:38;10.07;;;9.15;;
27383;SDS011;14851;51.166;4.760;2023-05-06T00:22:04;10.20;;;9.00;;
27383;SDS011;14851;51.166;4.760;2023-05-06T00:24:30;11.20;;;9.60;;
27383;SDS011;14851;51.166;4.760;2023-05-06T00:26:56;10.00;;;8.98;;
27383;SDS011;14851;51.166;4.760;2023-05-06T00:29:22;9.80;;;8.80;;
27383;SDS011;14851;51.166;4.760;2023-05-06T00:31:48;11.63;;;8.85;;
27383;SDS011;14851;51.166;4.760;2023-05-06T00:34:14;9.60;;;8.70;;
27383;SDS011;14851;51.166;4.760;2023-05-06T00:36:42;12.23;;;8.52;;
27383;SDS011;14851;51.166;4.760;2023-05-06T00:39:08;9.38;;;7.60;;
27383;SDS011;14851;51.166;4.760;2023-05-06T00:41:34;9.10;;;8.20;;
27383;SDS011;14851;51.166;4.760;2023-05-06T00:44:00;9.75;;;8.55;;
27383;SDS011;14851;51.166;4.760;2023-05-06T00:46:26;9.13;;;8.00;;
27383;SDS011;14851;51.166;4.760;2023-05-06T00:48:52;8.90;;;8.00;;
27383;SDS011;14851;51.166;4.760;2023-05-06T00:51:18;8.85;;;7.47;;
27383;SDS011;14851;51.166;4.760;2023-05-06T00:53:44;7.82;;;7.07;;
27383;SDS011;14851;51.166;4.760;2023-05-06T00:56:13;8.10;;;7.30;;
27383;SDS011;14851;51.166;4.760;2023-05-06T00:58:42;8.70;;;7.90;;
27383;SDS011;14851;51.166;4.760;2023-05-06T01:01:09;9.45;;;7.90;;
27383;SDS011;14851;51.166;4.760;2023-05-06T01:03:36;8.98;;;7.68;;
27383;SDS011;14851;51.166;4.760;2023-05-06T01:11:48;9.20;;;7.60;;
27383;SDS011;14851;51.166;4.760;2023-05-06T01:17:06;7.95;;;7.15;;
27383;SDS011;14851;51.166;4.760;2023-05-06T01:22:04;7.38;;;6.68;;
27383;SDS011;14851;51.166;4.760;2023-05-06T01:24:40;7.00;;;6.40;;
27383;SDS011;14851;51.166;4.760;2023-05-06T01:27:08;7.30;;;6.53;;
27383;SDS011;14851;51.166;4.760;2023-05-06T01:29:36;7.75;;;6.97;;
27383;SDS011;14851;51.166;4.760;2023-05-06T01:32:12;8.88;;;6.30;;
27383;SDS011;14851;51.166;4.760;2023-05-06T01:40:20;8.15;;;6.55;;
27383;SDS011;14851;51.166;4.760;2023-05-06T01:42:50;8.20;;;7.40;;
27383;SDS011;14851;51.166;4.760;2023-05-06T01:45:19;7.10;;;6.40;;
27383;SDS011;14851;51.166;4.760;2023-05-06T01:47:49;6.93;;;6.15;;
27383;SDS011;14851;51.166;4.760;2023-05-06T01:50:15;7.65;;;6.72;;
27383;SDS011;14851;51.166;4.760;2023-05-06T01:52:41;8.82;;;7.13;;
27383;SDS011;14851;51.166;4.760;2023-05-06T01:55:10;7.05;;;6.35;;
27383;SDS011;14851;51.166;4.760;2023-05-06T01:57:37;10.18;;;6.30;;
27383;SDS011;14851;51.166;4.760;2023-05-06T02:00:04;6.68;;;6.00;;
27383;SDS011;14851;51.166;4.760;2023-05-06T02:02:37;6.70;;;6.00;;
27383;SDS011;14851;51.166;4.760;2023-05-06T02:05:06;6.57;;;5.85;;
27383;SDS011;14851;51.166;4.760;2023-05-06T02:07:37;7.97;;;5.75;;
27383;SDS011;14851;51.166;4.760;2023-05-06T02:10:03;7.35;;;5.78;;
27383;SDS011;14851;51.166;4.760;2023-05-06T02:12:31;7.40;;;5.88;;
27383;SDS011;14851;51.166;4.760;2023-05-06T02:15:00;6.03;;;5.45;;
27383;SDS011;14851;51.166;4.760;2023-05-06T02:17:25;6.35;;;5.53;;
27383;SDS011;14851;51.166;4.760;2023-05-06T02:19:51;5.93;;;5.18;;
27383;SDS011;14851;51.166;4.760;2023-05-06T02:22:17;5.93;;;5.32;;
27383;SDS011;14851;51.166;4.760;2023-05-06T02:24:43;6.70;;;5.32;;
27383;SDS011;14851;51.166;4.760;2023-05-06T02:27:11;5.40;;;4.72;;
27383;SDS011;14851;51.166;4.760;2023-05-06T02:29:37;6.72;;;5.30;;
27383;SDS011;14851;51.166;4.760;2023-05-06T02:32:03;8.15;;;5.38;;
27383;SDS011;14851;51.166;4.760;2023-05-06T02:34:29;6.72;;;5.13;;
27383;SDS011;14851;51.166;4.760;2023-05-06T02:36:55;7.30;;;5.40;;
27383;SDS011;14851;51.166;4.760;2023-05-06T02:39:24;8.55;;;5.50;;
27383;SDS011;14851;51.166;4.760;2023-05-06T02:41:49;6.25;;;5.00;;
27383;SDS011;14851;51.166;4.760;2023-05-06T02:44:18;6.95;;;5.18;;
27383;SDS011;14851;51.166;4.760;2023-05-06T02:46:43;5.32;;;4.82;;
27383;SDS011;14851;51.166;4.760;2023-05-06T02:49:10;7.38;;;5.38;;
27383;SDS011;14851;51.166;4.760;2023-05-06T02:51:36;5.93;;;5.32;;
27383;SDS011;14851;51.166;4.760;2023-05-06T02:54:03;5.32;;;4.78;;
27383;SDS011;14851;51.166;4.760;2023-05-06T02:56:29;6.05;;;5.30;;
27383;SDS011;14851;51.166;4.760;2023-05-06T02:58:57;5.97;;;5.03;;
27383;SDS011;14851;51.166;4.760;2023-05-06T03:01:23;6.80;;;4.72;;
27383;SDS011;14851;51.166;4.760;2023-05-06T03:03:49;7.05;;;5.32;;
27383;SDS011;14851;51.166;4.760;2023-05-06T03:06:17;7.25;;;5.35;;
27383;SDS011;14851;51.166;4.760;2023-05-06T03:08:43;8.77;;;5.30;;
27383;SDS011;14851;51.166;4.760;2023-05-06T03:11:11;9.82;;;5.28;;
27383;SDS011;14851;51.166;4.760;2023-05-06T03:13:37;6.93;;;4.70;;
27383;SDS011;14851;51.166;4.760;2023-05-06T03:16:05;5.32;;;4.38;;
27383;SDS011;14851;51.166;4.760;2023-05-06T03:18:37;5.90;;;5.22;;
27383;SDS011;14851;51.166;4.760;2023-05-06T03:21:03;7.45;;;4.85;;
27383;SDS011;14851;51.166;4.760;2023-05-06T03:23:32;5.72;;;4.97;;
27383;SDS011;14851;51.166;4.760;2023-05-06T03:25:59;7.68;;;4.63;;
27383;SDS011;14851;51.166;4.760;2023-05-06T03:28:28;6.78;;;4.53;;
27383;SDS011;14851;51.166;4.760;2023-05-06T03:30:54;4.65;;;3.80;;
27383;SDS011;14851;51.166;4.760;2023-05-06T03:33:31;8.40;;;4.28;;
27383;SDS011;14851;51.166;4.760;2023-05-06T03:36:00;6.03;;;4.68;;
27383;SDS011;14851;51.166;4.760;2023-05-06T03:38:32;5.40;;;4.13;;
27383;SDS011;14851;51.166;4.760;2023-05-06T03:41:01;6.68;;;4.38;;
27383;SDS011;14851;51.166;4.760;2023-05-06T03:43:27;7.53;;;4.82;;
27383;SDS011;14851;51.166;4.760;2023-05-06T03:45:58;5.78;;;4.45;;
27383;SDS011;14851;51.166;4.760;2023-05-06T03:48:24;5.75;;;4.05;;
27383;SDS011;14851;51.166;4.760;2023-05-06T03:50:50;5.28;;;4.78;;
27383;SDS011;14851;51.166;4.760;2023-05-06T03:53:17;6.40;;;4.68;;
27383;SDS011;14851;51.166;4.760;2023-05-06T03:55:45;6.00;;;4.63;;
27383;SDS011;14851;51.166;4.760;2023-05-06T03:58:15;6.40;;;4.80;;
27383;SDS011;14851;51.166;4.760;2023-05-06T04:00:43;6.80;;;4.63;;
27383;SDS011;14851;51.166;4.760;2023-05-06T04:03:10;4.60;;;4.20;;
27383;SDS011;14851;51.166;4.760;2023-05-06T04:05:56;5.10;;;4.53;;
27383;SDS011;14851;51.166;4.760;2023-05-06T04:08:24;5.55;;;3.67;;
27383;SDS011;14851;51.166;4.760;2023-05-06T04:10:52;8.30;;;4.75;;
27383;SDS011;14851;51.166;4.760;2023-05-06T04:13:27;6.30;;;4.68;;
27383;SDS011;14851;51.166;4.760;2023-05-06T04:15:55;7.25;;;5.25;;
27383;SDS011;14851;51.166;4.760;2023-05-06T04:18:26;5.95;;;4.82;;
27383;SDS011;14851;51.166;4.760;2023-05-06T04:21:03;5.10;;;4.60;;
27383;SDS011;14851;51.166;4.760;2023-05-06T04:23:31;5.95;;;5.00;;
27383;SDS011;14851;51.166;4.760;2023-05-06T04:25:57;5.85;;;4.47;;
27383;SDS011;14851;51.166;4.760;2023-05-06T04:28:24;9.15;;;5.38;;
27383;SDS011;14851;51.166;4.760;2023-05-06T04:30:51;6.72;;;5.30;;
27383;SDS011;14851;51.166;4.760;2023-05-06T04:33:20;5.75;;;5.05;;
27383;SDS011;14851;51.166;4.760;2023-05-06T04:35:50;5.90;;;5.05;;
27383;SDS011;14851;51.166;4.760;2023-05-06T04:38:22;6.65;;;5.13;;
27383;SDS011;14851;51.166;4.760;2023-05-06T04:40:53;6.53;;;4.50;;
27383;SDS011;14851;51.166;4.760;2023-05-06T04:43:19;5.78;;;4.63;;
27383;SDS011;14851;51.166;4.760;2023-05-06T04:45:48;6.60;;;5.72;;
27383;SDS011;14851;51.166;4.760;2023-05-06T04:48:18;9.13;;;5.50;;
27383;SDS011;14851;51.166;4.760;2023-05-06T04:50:50;7.10;;;5.45;;
27383;SDS011;14851;51.166;4.760;2023-05-06T04:53:16;8.25;;;5.55;;
27383;SDS011;14851;51.166;4.760;2023-05-06T04:55:42;7.18;;;5.47;;
27383;SDS011;14851;51.166;4.760;2023-05-06T04:58:08;6.13;;;4.97;;
27383;SDS011;14851;51.166;4.760;2023-05-06T05:00:34;5.70;;;5.03;;
27383;SDS011;14851;51.166;4.760;2023-05-06T05:03:02;5.68;;;4.70;;
27383;SDS011;14851;51.166;4.760;2023-05-06T05:05:29;5.63;;;4.80;;
27383;SDS011;14851;51.166;4.760;2023-05-06T05:07:57;6.95;;;5.32;;
27383;SDS011;14851;51.166;4.760;2023-05-06T05:10:28;6.78;;;5.40;;
27383;SDS011;14851;51.166;4.760;2023-05-06T05:12:54;6.82;;;6.13;;
27383;SDS011;14851;51.166;4.760;2023-05-06T05:15:20;8.23;;;5.85;;
27383;SDS011;14851;51.166;4.760;2023-05-06T05:17:48;7.43;;;5.75;;
27383;SDS011;14851;51.166;4.760;2023-05-06T05:20:20;8.20;;;5.90;;
27383;SDS011;14851;51.166;4.760;2023-05-06T05:22:48;6.97;;;6.00;;
27383;SDS011;14851;51.166;4.760;2023-05-06T05:25:16;7.85;;;6.35;;
27383;SDS011;14851;51.166;4.760;2023-05-06T05:27:43;10.18;;;6.22;;
27383;SDS011;14851;51.166;4.760;2023-05-06T05:30:09;6.55;;;5.65;;
27383;SDS011;14851;51.166;4.760;2023-05-06T05:32:37;8.57;;;5.90;;
27383;SDS011;14851;51.166;4.760;2023-05-06T05:35:03;7.00;;;5.80;;
27383;SDS011;14851;51.166;4.760;2023-05-06T05:37:30;6.82;;;5.60;;
27383;SDS011;14851;51.166;4.760;2023-05-06T05:39:57;7.88;;;5.90;;
27383;SDS011;14851;51.166;4.760;2023-05-06T05:42:25;8.45;;;5.20;;
27383;SDS011;14851;51.166;4.760;2023-05-06T05:44:52;8.93;;;5.72;;
27383;SDS011;14851;51.166;4.760;2023-05-06T05:47:23;6.18;;;4.53;;
27383;SDS011;14851;51.166;4.760;2023-05-06T05:49:50;5.50;;;4.68;;
27383;SDS011;14851;51.166;4.760;2023-05-06T05:52:16;6.57;;;4.78;;
27383;SDS011;14851;51.166;4.760;2023-05-06T05:54:42;7.72;;;5.18;;
27383;SDS011;14851;51.166;4.760;2023-05-06T05:57:13;8.43;;;5.30;;
27383;SDS011;14851;51.166;4.760;2023-05-06T05:59:39;6.90;;;4.65;;
27383;SDS011;14851;51.166;4.760;2023-05-06T06:02:06;5.85;;;4.78;;
27383;SDS011;14851;51.166;4.760;2023-05-06T06:04:32;6.82;;;5.60;;
27383;SDS011;14851;51.166;4.760;2023-05-06T06:06:59;7.82;;;5.43;;
27383;SDS011;14851;51.166;4.760;2023-05-06T06:09:32;15.07;;;6.10;;
27383;SDS011;14851;51.166;4.760;2023-05-06T06:12:02;6.95;;;5.32;;
27383;SDS011;14851;51.166;4.760;2023-05-06T06:14:29;10.25;;;6.03;;
27383;SDS011;14851;51.166;4.760;2023-05-06T06:16:55;8.35;;;5.22;;
27383;SDS011;14851;51.166;4.760;2023-05-06T06:19:24;9.38;;;5.65;;
27383;SDS011;14851;51.166;4.760;2023-05-06T06:21:50;8.23;;;5.13;;
27383;SDS011;14851;51.166;4.760;2023-05-06T06:24:16;8.25;;;5.68;;
27383;SDS011;14851;51.166;4.760;2023-05-06T06:26:42;7.75;;;5.18;;
27383;SDS011;14851;51.166;4.760;2023-05-06T06:29:08;7.68;;;6.07;;
27383;SDS011;14851;51.166;4.760;2023-05-06T06:31:34;8.27;;;5.78;;
27383;SDS011;14851;51.166;4.760;2023-05-06T06:34:00;8.70;;;5.85;;
27383;SDS011;14851;51.166;4.760;2023-05-06T06:36:31;10.05;;;5.95;;
27383;SDS011;14851;51.166;4.760;2023-05-06T06:38:57;10.43;;;6.53;;
27383;SDS011;14851;51.166;4.760;2023-05-06T06:41:23;12.80;;;6.75;;
27383;SDS011;14851;51.166;4.760;2023-05-06T06:43:49;7.43;;;5.88;;
27383;SDS011;14851;51.166;4.760;2023-05-06T06:46:15;15.77;;;7.22;;
27383;SDS011;14851;51.166;4.760;2023-05-06T06:48:41;13.00;;;6.15;;
27383;SDS011;14851;51.166;4.760;2023-05-06T06:51:07;10.00;;;5.03;;
27383;SDS011;14851;51.166;4.760;2023-05-06T06:53:32;8.65;;;5.55;;
27383;SDS011;14851;51.166;4.760;2023-05-06T06:55:58;11.25;;;6.55;;
27383;SDS011;14851;51.166;4.760;2023-05-06T06:58:24;11.63;;;5.80;;
27383;SDS011;14851;51.166;4.760;2023-05-06T07:00:53;9.38;;;5.53;;
27383;SDS011;14851;51.166;4.760;2023-05-06T07:03:21;9.30;;;5.15;;
27383;SDS011;14851;51.166;4.760;2023-05-06T07:05:48;11.50;;;6.90;;
27383;SDS011;14851;51.166;4.760;2023-05-06T07:08:14;13.10;;;7.00;;
27383;SDS011;14851;51.166;4.760;2023-05-06T07:10:41;10.23;;;6.07;;
27383;SDS011;14851;51.166;4.760;2023-05-06T07:13:07;8.70;;;4.72;;
27383;SDS011;14851;51.166;4.760;2023-05-06T07:15:32;9.48;;;5.32;;
27383;SDS011;14851;51.166;4.760;2023-05-06T07:17:58;8.90;;;5.07;;
27383;SDS011;14851;51.166;4.760;2023-05-06T07:20:25;8.98;;;4.43;;
27383;SDS011;14851;51.166;4.760;2023-05-06T07:22:51;10.40;;;5.57;;
27383;SDS011;14851;51.166;4.760;2023-05-06T07:25:18;7.18;;;5.30;;
27383;SDS011;14851;51.166;4.760;2023-05-06T07:27:44;9.32;;;4.80;;
27383;SDS011;14851;51.166;4.760;2023-05-06T07:30:10;6.70;;;3.67;;
27383;SDS011;14851;51.166;4.760;2023-05-06T07:32:36;10.30;;;4.32;;
27383;SDS011;14851;51.166;4.760;2023-05-06T07:35:04;11.63;;;4.80;;
27383;SDS011;14851;51.166;4.760;2023-05-06T07:37:31;9.68;;;4.85;;
27383;SDS011;14851;51.166;4.760;2023-05-06T07:39:57;8.65;;;4.55;;
27383;SDS011;14851;51.166;4.760;2023-05-06T07:42:23;12.27;;;4.28;;
27383;SDS011;14851;51.166;4.760;2023-05-06T07:44:49;8.10;;;5.07;;
27383;SDS011;14851;51.166;4.760;2023-05-06T07:47:27;10.35;;;5.03;;
27383;SDS011;14851;51.166;4.760;2023-05-06T07:49:55;9.13;;;4.93;;
27383;SDS011;14851;51.166;4.760;2023-05-06T07:52:24;8.73;;;4.88;;
27383;SDS011;14851;51.166;4.760;2023-05-06T07:54:50;7.72;;;4.55;;
27383;SDS011;14851;51.166;4.760;2023-05-06T07:57:16;6.35;;;3.15;;
27383;SDS011;14851;51.166;4.760;2023-05-06T07:59:42;5.40;;;3.50;;
27383;SDS011;14851;51.166;4.760;2023-05-06T08:02:09;7.18;;;3.78;;
27383;SDS011;14851;51.166;4.760;2023-05-06T08:04:35;7.40;;;4.60;;
27383;SDS011;14851;51.166;4.760;2023-05-06T08:07:00;5.40;;;2.40;;
27383;SDS011;14851;51.166;4.760;2023-05-06T08:09:26;5.82;;;2.42;;
27383;SDS011;14851;51.166;4.760;2023-05-06T08:11:52;5.95;;;3.05;;
27383;SDS011;14851;51.166;4.760;2023-05-06T08:14:18;8.30;;;3.92;;
27383;SDS011;14851;51.166;4.760;2023-05-06T08:16:44;12.25;;;5.55;;
27383;SDS011;14851;51.166;4.760;2023-05-06T08:19:10;8.15;;;5.07;;
27383;SDS011;14851;51.166;4.760;2023-05-06T08:21:36;12.50;;;6.05;;
27383;SDS011;14851;51.166;4.760;2023-05-06T08:24:01;9.00;;;4.43;;
27383;SDS011;14851;51.166;4.760;2023-05-06T08:26:28;4.97;;;3.40;;
27383;SDS011;14851;51.166;4.760;2023-05-06T08:28:53;7.18;;;3.50;;
27383;SDS011;14851;51.166;4.760;2023-05-06T08:31:21;9.35;;;5.03;;
27383;SDS011;14851;51.166;4.760;2023-05-06T08:33:49;6.45;;;3.05;;
27383;SDS011;14851;51.166;4.760;2023-05-06T08:36:18;8.48;;;5.03;;
27383;SDS011;14851;51.166;4.760;2023-05-06T08:38:44;6.88;;;4.28;;
27383;SDS011;14851;51.166;4.760;2023-05-06T08:41:16;8.63;;;4.53;;
27383;SDS011;14851;51.166;4.760;2023-05-06T08:43:42;9.85;;;4.45;;
27383;SDS011;14851;51.166;4.760;2023-05-06T08:46:13;8.20;;;4.50;;
27383;SDS011;14851;51.166;4.760;2023-05-06T08:48:40;12.20;;;4.82;;
27383;SDS011;14851;51.166;4.760;2023-05-06T08:51:06;12.65;;;6.30;;
27383;SDS011;14851;51.166;4.760;2023-05-06T08:53:32;16.23;;;6.05;;
27383;SDS011;14851;51.166;4.760;2023-05-06T08:56:00;8.13;;;5.15;;
27383;SDS011;14851;51.166;4.760;2023-05-06T08:58:33;5.97;;;3.63;;
27383;SDS011;14851;51.166;4.760;2023-05-06T09:01:00;8.63;;;3.38;;
27383;SDS011;14851;51.166;4.760;2023-05-06T09:03:29;7.57;;;4.35;;
27383;SDS011;14851;51.166;4.760;2023-05-06T09:05:57;11.07;;;4.90;;
27383;SDS011;14851;51.166;4.760;2023-05-06T09:08:23;8.75;;;5.25;;
27383;SDS011;14851;51.166;4.760;2023-05-06T09:10:49;14.20;;;5.10;;
27383;SDS011;14851;51.166;4.760;2023-05-06T09:13:15;7.40;;;3.70;;
27383;SDS011;14851;51.166;4.760;2023-05-06T09:15:43;6.55;;;3.50;;
27383;SDS011;14851;51.166;4.760;2023-05-06T09:18:14;8.45;;;5.43;;
27383;SDS011;14851;51.166;4.760;2023-05-06T09:20:41;8.23;;;4.63;;
27383;SDS011;14851;51.166;4.760;2023-05-06T09:23:15;7.13;;;4.55;;
27383;SDS011;14851;51.166;4.760;2023-05-06T09:25:44;5.82;;;3.65;;
27383;SDS011;14851;51.166;4.760;2023-05-06T09:28:12;8.20;;;3.90;;
27383;SDS011;14851;51.166;4.760;2023-05-06T09:30:40;6.95;;;3.35;;
27383;SDS011;14851;51.166;4.760;2023-05-06T09:33:07;4.93;;;3.45;;
27383;SDS011;14851;51.166;4.760;2023-05-06T09:35:36;5.63;;;2.60;;
27383;SDS011;14851;51.166;4.760;2023-05-06T09:38:06;5.28;;;3.00;;
27383;SDS011;14851;51.166;4.760;2023-05-06T09:40:36;4.35;;;2.65;;
27383;SDS011;14851;51.166;4.760;2023-05-06T09:43:05;3.22;;;2.50;;
27383;SDS011;14851;51.166;4.760;2023-05-06T09:45:31;6.13;;;2.60;;
27383;SDS011;14851;51.166;4.760;2023-05-06T09:47:57;5.68;;;2.80;;
27383;SDS011;14851;51.166;4.760;2023-05-06T09:50:24;4.07;;;2.42;;
27383;SDS011;14851;51.166;4.760;2023-05-06T09:52:52;8.00;;;3.78;;
27383;SDS011;14851;51.166;4.760;2023-05-06T09:55:20;5.28;;;2.95;;
27383;SDS011;14851;51.166;4.760;2023-05-06T09:57:47;4.60;;;2.35;;
27383;SDS011;14851;51.166;4.760;2023-05-06T10:00:14;4.70;;;2.00;;
27383;SDS011;14851;51.166;4.760;2023-05-06T10:02:44;5.43;;;2.50;;
27383;SDS011;14851;51.166;4.760;2023-05-06T10:05:12;5.50;;;2.10;;
27383;SDS011;14851;51.166;4.760;2023-05-06T10:07:38;7.05;;;2.38;;
27383;SDS011;14851;51.166;4.760;2023-05-06T10:10:09;5.43;;;2.65;;
27383;SDS011;14851;51.166;4.760;2023-05-06T10:12:36;6.60;;;2.90;;
27383;SDS011;14851;51.166;4.760;2023-05-06T10:15:03;4.45;;;2.47;;
27383;SDS011;14851;51.166;4.760;2023-05-06T10:17:30;7.75;;;2.70;;
27383;SDS011;14851;51.166;4.760;2023-05-06T10:19:59;7.15;;;2.92;;
27383;SDS011;14851;51.166;4.760;2023-05-06T10:25:29;6.72;;;2.55;;
27383;SDS011;14851;51.166;4.760;2023-05-06T10:28:05;5.60;;;2.33;;
27383;SDS011;14851;51.166;4.760;2023-05-06T10:30:32;3.83;;;1.98;;
27383;SDS011;14851;51.166;4.760;2023-05-06T10:33:02;5.82;;;3.10;;
27383;SDS011;14851;51.166;4.760;2023-05-06T10:38:27;5.55;;;2.28;;
27383;SDS011;14851;51.166;4.760;2023-05-06T10:40:57;9.20;;;2.28;;
27383;SDS011;14851;51.166;4.760;2023-05-06T10:43:29;3.78;;;2.08;;
27383;SDS011;14851;51.166;4.760;2023-05-06T10:45:57;5.00;;;2.13;;
27383;SDS011;14851;51.166;4.760;2023-05-06T10:48:24;6.30;;;2.20;;
27383;SDS011;14851;51.166;4.760;2023-05-06T10:50:49;5.35;;;1.98;;
27383;SDS011;14851;51.166;4.760;2023-05-06T10:53:15;5.30;;;1.40;;
27383;SDS011;14851;51.166;4.760;2023-05-06T10:55:41;6.78;;;1.67;;
27383;SDS011;14851;51.166;4.760;2023-05-06T11:00:35;3.65;;;1.63;;
27383;SDS011;14851;51.166;4.760;2023-05-06T11:03:04;4.70;;;1.55;;
27383;SDS011;14851;51.166;4.760;2023-05-06T11:05:47;5.22;;;2.20;;
27383;SDS011;14851;51.166;4.760;2023-05-06T11:08:14;4.05;;;1.88;;
27383;SDS011;14851;51.166;4.760;2023-05-06T11:10:52;4.38;;;1.42;;
27383;SDS011;14851;51.166;4.760;2023-05-06T11:13:22;3.53;;;1.75;;
27383;SDS011;14851;51.166;4.760;2023-05-06T11:15:55;3.90;;;1.40;;
27383;SDS011;14851;51.166;4.760;2023-05-06T11:21:39;4.05;;;1.52;;
27383;SDS011;14851;51.166;4.760;2023-05-06T11:26:19;4.78;;;1.60;;
27383;SDS011;14851;51.166;4.760;2023-05-06T11:28:46;3.80;;;1.80;;
27383;SDS011;14851;51.166;4.760;2023-05-06T11:31:15;3.00;;;1.63;;
27383;SDS011;14851;51.166;4.760;2023-05-06T11:33:45;3.65;;;1.33;;
27383;SDS011;14851;51.166;4.760;2023-05-06T11:36:16;2.83;;;1.23;;
27383;SDS011;14851;51.166;4.760;2023-05-06T11:38:47;4.05;;;2.00;;
27383;SDS011;14851;51.166;4.760;2023-05-06T11:41:15;5.85;;;1.42;;
27383;SDS011;14851;51.166;4.760;2023-05-06T11:43:45;3.50;;;1.48;;
27383;SDS011;14851;51.166;4.760;2023-05-06T11:46:11;3.88;;;1.50;;
27383;SDS011;14851;51.166;4.760;2023-05-06T11:48:37;2.28;;;1.20;;
27383;SDS011;14851;51.166;4.760;2023-05-06T11:51:03;5.18;;;1.35;;
27383;SDS011;14851;51.166;4.760;2023-05-06T11:53:31;6.72;;;1.30;;
27383;SDS011;14851;51.166;4.760;2023-05-06T11:55:59;9.25;;;1.52;;
27383;SDS011;14851;51.166;4.760;2023-05-06T11:58:26;6.03;;;1.88;;
27383;SDS011;14851;51.166;4.760;2023-05-06T12:00:57;3.88;;;1.45;;
27383;SDS011;14851;51.166;4.760;2023-05-06T12:03:25;4.07;;;1.60;;
27383;SDS011;14851;51.166;4.760;2023-05-06T12:05:52;5.47;;;1.85;;
27383;SDS011;14851;51.166;4.760;2023-05-06T12:08:22;4.97;;;1.30;;
27383;SDS011;14851;51.166;4.760;2023-05-06T12:10:55;4.07;;;1.23;;
27383;SDS011;14851;51.166;4.760;2023-05-06T12:13:25;8.77;;;1.65;;
27383;SDS011;14851;51.166;4.760;2023-05-06T12:15:53;5.72;;;1.38;;
27383;SDS011;14851;51.166;4.760;2023-05-06T12:18:22;6.38;;;0.98;;
27383;SDS011;14851;51.166;4.760;2023-05-06T12:20:50;4.20;;;1.50;;
27383;SDS011;14851;51.166;4.760;2023-05-06T12:23:22;6.40;;;1.40;;
27383;SDS011;14851;51.166;4.760;2023-05-06T12:28:28;3.45;;;1.20;;
27383;SDS011;14851;51.166;4.760;2023-05-06T12:30:55;4.47;;;1.70;;
27383;SDS011;14851;51.166;4.760;2023-05-06T12:33:21;5.38;;;1.52;;
27383;SDS011;14851;51.166;4.760;2023-05-06T12:35:47;5.30;;;1.52;;
27383;SDS011;14851;51.166;4.760;2023-05-06T12:38:19;4.75;;;1.50;;
27383;SDS011;14851;51.166;4.760;2023-05-06T12:40:53;2.90;;;1.40;;
27383;SDS011;14851;51.166;4.760;2023-05-06T12:43:26;3.53;;;1.58;;
27383;SDS011;14851;51.166;4.760;2023-05-06T12:46:03;6.43;;;1.48;;
27383;SDS011;14851;51.166;4.760;2023-05-06T12:48:30;2.60;;;1.05;;
27383;SDS011;14851;51.166;4.760;2023-05-06T12:50:56;5.35;;;1.42;;
27383;SDS011;14851;51.166;4.760;2023-05-06T12:53:34;5.53;;;1.33;;
27383;SDS011;14851;51.166;4.760;2023-05-06T12:56:00;4.28;;;1.20;;
27383;SDS011;14851;51.166;4.760;2023-05-06T12:58:26;3.60;;;1.02;;
27383;SDS011;14851;51.166;4.760;2023-05-06T13:00:51;3.75;;;1.23;;
27383;SDS011;14851;51.166;4.760;2023-05-06T13:03:17;4.45;;;1.00;;
27383;SDS011;14851;51.166;4.760;2023-05-06T13:05:43;4.63;;;1.10;;
27383;SDS011;14851;51.166;4.760;2023-05-06T13:08:14;3.45;;;1.30;;
27383;SDS011;14851;51.166;4.760;2023-05-06T13:10:40;3.80;;;1.42;;
27383;SDS011;14851;51.166;4.760;2023-05-06T13:13:06;5.90;;;1.42;;
27383;SDS011;14851;51.166;4.760;2023-05-06T13:15:32;4.88;;;1.42;;
27383;SDS011;14851;51.166;4.760;2023-05-06T13:17:59;4.93;;;1.40;;
27383;SDS011;14851;51.166;4.760;2023-05-06T13:20:25;6.43;;;1.50;;
27383;SDS011;14851;51.166;4.760;2023-05-06T13:22:51;3.47;;;1.40;;
27383;SDS011;14851;51.166;4.760;2023-05-06T13:25:17;5.45;;;1.55;;
27383;SDS011;14851;51.166;4.760;2023-05-06T13:27:43;4.43;;;1.30;;
27383;SDS011;14851;51.166;4.760;2023-05-06T13:30:09;4.32;;;1.75;;
27383;SDS011;14851;51.166;4.760;2023-05-06T13:32:35;4.38;;;1.90;;
27383;SDS011;14851;51.166;4.760;2023-05-06T13:35:03;5.45;;;1.60;;
27383;SDS011;14851;51.166;4.760;2023-05-06T13:37:30;7.18;;;1.88;;
27383;SDS011;14851;51.166;4.760;2023-05-06T13:39:56;4.35;;;1.80;;
27383;SDS011;14851;51.166;4.760;2023-05-06T13:42:24;3.65;;;1.60;;
27383;SDS011;14851;51.166;4.760;2023-05-06T13:44:50;5.35;;;1.50;;
27383;SDS011;14851;51.166;4.760;2023-05-06T13:47:15;7.22;;;1.98;;
27383;SDS011;14851;51.166;4.760;2023-05-06T13:49:41;7.20;;;1.52;;
27383;SDS011;14851;51.166;4.760;2023-05-06T13:52:09;7.10;;;1.50;;
27383;SDS011;14851;51.166;4.760;2023-05-06T13:54:38;3.85;;;1.65;;
27383;SDS011;14851;51.166;4.760;2023-05-06T13:57:04;5.63;;;1.67;;
27383;SDS011;14851;51.166;4.760;2023-05-06T13:59:29;5.75;;;1.58;;
27383;SDS011;14851;51.166;4.760;2023-05-06T14:01:55;6.18;;;1.70;;
27383;SDS011;14851;51.166;4.760;2023-05-06T14:04:21;4.78;;;1.38;;
27383;SDS011;14851;51.166;4.760;2023-05-06T14:06:49;3.55;;;1.00;;
27383;SDS011;14851;51.166;4.760;2023-05-06T14:09:15;4.65;;;1.98;;
27383;SDS011;14851;51.166;4.760;2023-05-06T14:11:42;8.05;;;1.67;;
27383;SDS011;14851;51.166;4.760;2023-05-06T14:14:07;4.63;;;1.25;;
27383;SDS011;14851;51.166;4.760;2023-05-06T14:16:33;6.57;;;2.45;;
27383;SDS011;14851;51.166;4.760;2023-05-06T14:18:59;3.55;;;1.35;;
27383;SDS011;14851;51.166;4.760;2023-05-06T14:21:25;4.20;;;1.30;;
27383;SDS011;14851;51.166;4.760;2023-05-06T14:23:51;6.88;;;1.25;;
27383;SDS011;14851;51.166;4.760;2023-05-06T14:26:17;3.97;;;1.38;;
27383;SDS011;14851;51.166;4.760;2023-05-06T14:28:43;5.05;;;1.40;;
27383;SDS011;14851;51.166;4.760;2023-05-06T14:31:08;7.85;;;1.70;;
27383;SDS011;14851;51.166;4.760;2023-05-06T14:33:36;3.72;;;1.40;;
27383;SDS011;14851;51.166;4.760;2023-05-06T14:36:02;6.43;;;1.55;;
27383;SDS011;14851;51.166;4.760;2023-05-06T14:38:29;4.82;;;1.40;;
27383;SDS011;14851;51.166;4.760;2023-05-06T14:40:55;5.22;;;1.75;;
27383;SDS011;14851;51.166;4.760;2023-05-06T14:43:23;3.47;;;1.50;;
27383;SDS011;14851;51.166;4.760;2023-05-06T14:45:49;3.60;;;1.70;;
27383;SDS011;14851;51.166;4.760;2023-05-06T14:48:17;4.22;;;1.50;;
27383;SDS011;14851;51.166;4.760;2023-05-06T14:50:43;4.15;;;1.40;;
27383;SDS011;14851;51.166;4.760;2023-05-06T14:53:09;243.15;;;16.02;;
27383;SDS011;14851;51.166;4.760;2023-05-06T14:55:35;11.57;;;2.45;;
27383;SDS011;14851;51.166;4.760;2023-05-06T14:58:01;97.32;;;7.30;;
27383;SDS011;14851;51.166;4.760;2023-05-06T15:00:27;16.23;;;2.42;;
27383;SDS011;14851;51.166;4.760;2023-05-06T15:02:53;4.85;;;1.73;;
27383;SDS011;14851;51.166;4.760;2023-05-06T15:05:19;5.90;;;1.80;;
27383;SDS011;14851;51.166;4.760;2023-05-06T15:07:45;4.18;;;1.70;;
27383;SDS011;14851;51.166;4.760;2023-05-06T15:10:11;6.00;;;2.20;;
27383;SDS011;14851;51.166;4.760;2023-05-06T15:12:37;7.25;;;2.00;;
27383;SDS011;14851;51.166;4.760;2023-05-06T15:15:03;7.03;;;1.50;;
27383;SDS011;14851;51.166;4.760;2023-05-06T15:17:30;5.82;;;1.63;;
27383;SDS011;14851;51.166;4.760;2023-05-06T15:19:56;5.88;;;1.90;;